ADDS METAR Data INFO
IDs: Format: Raw Decoded Include TAF

Data at: 2242 UTC 22 Aug 2017

KHDO 222151Z AUTO 09009KT 10SM FEW065 37/19 A3000 RMK AO2 SLP140 T03670194 $
KHDO 222051Z AUTO 18004KT 10SM CLR 36/19 A3002 RMK AO2 SLP147 T03560189 58022 $
KHDO 221951Z AUTO 16009G14KT 10SM CLR 35/20 A3005 RMK AO2 SLP156 T03500200 $
KHDO 221851Z AUTO 12007KT 10SM CLR 34/20 A3007 RMK AO2 SLP164 T03390200 $
KHDO 221751Z AUTO 15005KT 10SM FEW040 33/21 A3008 RMK AO2 SLP169 T03280206 10328 20233 58002 $
KHDO 221651Z AUTO 14007KT 10SM FEW031 32/21 A3010 RMK AO2 SLP174 T03170211 $
KHDO 221611Z AUTO 26004KT 10SM SCT028 30/22 A3009 RMK AO2 T03000222 $
KHDO 221602Z AUTO 20008KT 110V290 2 1/2SM HZ CLR 31/22 A3010 RMK AO2 T03060222 $
KHDO 221551Z AUTO 00000KT 10SM CLR 29/22 A3010 RMK AO2 SLP174 T02940217 $
KHDO 221535Z AUTO VRB03KT 10SM CLR 29/22 A3010 RMK AO2 T02940222 $
KHDO 221520Z AUTO VRB03KT 2SM HZ CLR 28/22 A3010 RMK AO2 T02830222 $
KHDO 221451Z AUTO 20004KT 10SM CLR 27/22 A3009 RMK AO2 SLP173 T02720222 51006
KHDO 221446Z AUTO 22004KT 2 1/2SM HZ CLR 27/22 A3009 RMK AO2
KHDO 221351Z AUTO 19005KT 10SM FEW014 27/23 A3008 RMK AO2 SLP168 T02670228
KHDO 221318Z AUTO 07003KT 10SM SCT009 26/23 A3008 RMK AO2 T02610228
KHDO 221251Z AUTO 04003KT 10SM SCT012 24/22 A3007 RMK AO2 SLP167 T02440222
KHDO 221205Z AUTO 06003KT 10SM FEW014 SCT021 24/22 A3006 RMK AO2 T02390217
KHDO 221151Z AUTO 10003KT 10SM SCT013 BKN021 24/22 A3006 RMK AO2 SLP161 T02440222 10278 20239 56002
KHDO 221051Z AUTO 00000KT 10SM BKN018 24/22 A3006 RMK AO2 SLP161 T02440222
KHDO 221044Z AUTO 00000KT 10SM BKN016 25/22 A3006 RMK AO2 T02500222
KHDO 220951Z AUTO 09003KT 10SM OVC014 26/22 A3006 RMK AO2 SLP160 T02560222
KHDO 220901Z AUTO 13003KT 10SM BKN014 25/22 A3007 RMK AO2 T02500222
KHDO 220851Z AUTO 14004KT 10SM FEW015 25/22 A3006 RMK AO2 SLP164 T02500222 58013
KHDO 220751Z AUTO 14005KT 10SM CLR 26/22 A3007 RMK AO2 SLP166 T02610222
KHDO 220651Z AUTO 15008KT 10SM FEW080 27/21 A3010 RMK AO2 SLP174 T02720211
KHDO 220551Z AUTO 16007KT 10SM FEW075 BKN090 28/21 A3010 RMK AO2 SLP176 T02780211 10339 20278 403560233 51021
KHDO 220451Z AUTO 14011KT 10SM FEW070 29/21 A3010 RMK AO2 SLP173 T02890206
KHDO 220351Z AUTO 12010KT 10SM SCT055 SCT070 BKN095 31/21 A3007 RMK AO2 SLP165 T03060206
KHDO 220251Z AUTO 10008KT 10SM SCT060 OVC075 31/21 A3004 RMK AO2 SLP154 T03110206 53013
KHDO 220151Z AUTO 09005KT 10SM BKN060 BKN075 31/21 A3002 RMK AO2 SLP148 T03110206
KHDO 220051Z AUTO 09005KT 10SM SCT075 32/21 A3000 RMK AO2 SLP143 T03220206
KHDO 212351Z AUTO 11005KT 10SM CLR 34/20 A3000 RMK AO2 SLP142 T03390200 10356 20317 56015
KHDO 212340Z AUTO 09007KT 10SM FEW060 34/20 A3000 RMK AO2 T03440200
KHDO 212331Z AUTO 09008KT 2 1/2SM HZ FEW060 SCT075 34/20 A3000 RMK AO2 T03440200
KHDO 212251Z AUTO 14006KT 10SM SCT060 36/19 A3001 RMK AO2 SLP145 T03560194
KHDO 212151Z AUTO 17004KT 10SM FEW055 35/20 A3002 RMK AO2 SLP149 T03500200
KHDO 212051Z AUTO 13005KT 10SM FEW055 33/20 A3005 RMK AO2 SLP157 T03330200 58013
KHDO 211951Z AUTO VRB03KT 10SM FEW050 33/21 A3006 RMK AO2 SLP163 T03330206
KHDO 211851Z AUTO VRB06KT 10SM FEW042 32/21 A3007 RMK AO2 SLP167 T03220211